TimeCST,TemperatureF,Dew PointF,Humidity,Sea Level PressureIn,VisibilityMPH,Wind Direction,Wind SpeedMPH,Gust SpeedMPH,PrecipitationIn,Events,Conditions,WindDirDegrees,DateUTC
12:56 AM,21.0,19.0,92,29.75,-9999.0,South,3.5,-,N/A,,Unknown,180,2012-12-15 06:56:00
1:56 AM,21.9,19.9,92,29.72,-9999.0,Calm,Calm,-,N/A,,Unknown,0,2012-12-15 07:56:00
2:56 AM,24.1,21.9,91,29.71,-9999.0,Calm,Calm,-,N/A,,Unknown,0,2012-12-15 08:56:00
3:56 AM,25.0,23.0,92,29.71,-9999.0,SE,3.5,-,N/A,,Unknown,140,2012-12-15 09:56:00
4:56 AM,26.1,23.0,88,29.70,-9999.0,ENE,4.6,-,N/A,,Unknown,60,2012-12-15 10:56:00
5:56 AM,25.0,23.0,92,29.71,-9999.0,North,6.9,-,0.01,,Unknown,10,2012-12-15 11:56:00
6:56 AM,27.0,25.0,92,29.70,-9999.0,North,11.5,-,0.03,,Unknown,350,2012-12-15 12:56:00
7:56 AM,27.0,25.0,92,29.69,-9999.0,North,9.2,-,0.01,,Unknown,350,2012-12-15 13:56:00
8:56 AM,26.1,24.1,92,29.69,-9999.0,NNW,12.7,-,0.01,,Unknown,340,2012-12-15 14:56:00
9:56 AM,28.0,27.0,96,29.68,-9999.0,North,12.7,-,0.05,,Unknown,350,2012-12-15 15:56:00
10:56 AM,28.9,27.0,92,29.69,-9999.0,NNW,16.1,-,0.05,,Unknown,340,2012-12-15 16:56:00
11:56 AM,28.9,28.0,96,29.68,-9999.0,NNW,15.0,-,0.02,,Unknown,340,2012-12-15 17:56:00
12:56 PM,28.0,26.1,92,29.66,-9999.0,NNW,13.8,-,0.01,,Unknown,340,2012-12-15 18:56:00
1:56 PM,28.0,25.0,88,29.65,-9999.0,North,19.6,25.3,N/A,,Unknown,350,2012-12-15 19:56:00
2:56 PM,27.0,24.1,89,29.66,-9999.0,NNW,20.7,-,N/A,,Unknown,340,2012-12-15 20:56:00
3:56 PM,27.0,23.0,85,29.68,-9999.0,North,16.1,-,N/A,,Unknown,350,2012-12-15 21:56:00
4:56 PM,26.1,23.0,88,29.70,-9999.0,NNW,16.1,-,N/A,,Unknown,340,2012-12-15 22:56:00
5:56 PM,24.1,21.0,88,29.72,-9999.0,NNW,15.0,-,N/A,,Unknown,340,2012-12-15 23:56:00
6:56 PM,23.0,19.0,85,29.75,-9999.0,NNW,18.4,-,N/A,,Unknown,330,2012-12-16 00:56:00
7:56 PM,21.9,18.0,85,29.76,-9999.0,NNW,16.1,-,N/A,,Unknown,340,2012-12-16 01:56:00
8:56 PM,19.9,16.0,85,29.78,-9999.0,NNW,18.4,-,N/A,,Unknown,340,2012-12-16 02:56:00
9:56 PM,18.0,15.1,88,29.78,-9999.0,NNW,19.6,-,N/A,,Unknown,340,2012-12-16 03:56:00
10:56 PM,17.1,12.9,84,29.79,-9999.0,NNW,16.1,-,N/A,,Unknown,340,2012-12-16 04:56:00
11:56 PM,16.0,12.9,88,29.81,-9999.0,NNW,15.0,-,N/A,,Unknown,340,2012-12-16 05:56:00